sensor_id;sensor_type;location;lat;lon;timestamp;temperature;humidity
20858;DHT22;10589;53.636;10.012;2023-11-21T04:47:37;6.30;99.90
20858;DHT22;10589;53.636;10.012;2023-11-21T04:50:03;6.30;99.90
20858;DHT22;10589;53.636;10.012;2023-11-21T04:52:29;6.30;99.90
20858;DHT22;10589;53.636;10.012;2023-11-21T04:54:55;6.30;99.90
20858;DHT22;10589;53.636;10.012;2023-11-21T04:57:23;6.20;99.90
20858;DHT22;10589;53.636;10.012;2023-11-21T04:59:51;6.30;99.90
20858;DHT22;10589;53.636;10.012;2023-11-21T05:02:17;6.20;99.90
20858;DHT22;10589;53.636;10.012;2023-11-21T05:04:44;6.20;99.90
20858;DHT22;10589;53.636;10.012;2023-11-21T05:07:10;6.20;99.90
20858;DHT22;10589;53.636;10.012;2023-11-21T05:09:36;6.20;99.90
20858;DHT22;10589;53.636;10.012;2023-11-21T05:12:03;6.20;99.90
20858;DHT22;10589;53.636;10.012;2023-11-21T05:14:28;6.20;99.90
20858;DHT22;10589;53.636;10.012;2023-11-21T05:16:54;6.20;99.90
20858;DHT22;10589;53.636;10.012;2023-11-21T05:19:20;6.20;99.90
20858;DHT22;10589;53.636;10.012;2023-11-21T05:21:46;6.20;99.90
20858;DHT22;10589;53.636;10.012;2023-11-21T05:24:12;6.20;99.90
20858;DHT22;10589;53.636;10.012;2023-11-21T05:26:38;6.20;99.90
20858;DHT22;10589;53.636;10.012;2023-11-21T05:29:04;6.20;99.90
20858;DHT22;10589;53.636;10.012;2023-11-21T05:31:29;6.20;99.90
20858;DHT22;10589;53.636;10.012;2023-11-21T05:33:55;6.20;99.90
20858;DHT22;10589;53.636;10.012;2023-11-21T05:36:21;6.20;99.90
20858;DHT22;10589;53.636;10.012;2023-11-21T05:38:46;6.20;99.90
20858;DHT22;10589;53.636;10.012;2023-11-21T05:41:12;6.20;99.90
20858;DHT22;10589;53.636;10.012;2023-11-21T05:43:39;6.20;99.90
20858;DHT22;10589;53.636;10.012;2023-11-21T05:46:05;6.20;99.90
20858;DHT22;10589;53.636;10.012;2023-11-21T05:48:32;6.20;99.90
20858;DHT22;10589;53.636;10.012;2023-11-21T05:50:58;6.20;99.90
20858;DHT22;10589;53.636;10.012;2023-11-21T05:53:24;6.20;99.90
20858;DHT22;10589;53.636;10.012;2023-11-21T05:55:50;6.20;99.90
20858;DHT22;10589;53.636;10.012;2023-11-21T05:58:16;6.20;99.90
20858;DHT22;10589;53.636;10.012;2023-11-21T06:00:41;6.20;99.90
20858;DHT22;10589;53.636;10.012;2023-11-21T06:03:07;6.30;99.90
20858;DHT22;10589;53.636;10.012;2023-11-21T06:05:33;6.30;99.90
20858;DHT22;10589;53.636;10.012;2023-11-21T06:07:59;6.30;99.90
20858;DHT22;10589;53.636;10.012;2023-11-21T06:10:25;6.30;99.90
20858;DHT22;10589;53.636;10.012;2023-11-21T06:12:51;6.30;99.90
20858;DHT22;10589;53.636;10.012;2023-11-21T06:15:17;6.30;99.90
20858;DHT22;10589;53.636;10.012;2023-11-21T06:17:44;6.20;99.90
20858;DHT22;10589;53.636;10.012;2023-11-21T06:20:14;6.20;99.90
20858;DHT22;10589;53.636;10.012;2023-11-21T06:22:45;6.20;99.90
20858;DHT22;10589;53.636;10.012;2023-11-21T06:25:12;6.30;99.90
20858;DHT22;10589;53.636;10.012;2023-11-21T06:27:48;6.30;99.90
20858;DHT22;10589;53.636;10.012;2023-11-21T06:30:14;6.30;99.90
20858;DHT22;10589;53.636;10.012;2023-11-21T06:32:41;6.30;99.90
20858;DHT22;10589;53.636;10.012;2023-11-21T06:35:07;6.30;99.90
20858;DHT22;10589;53.636;10.012;2023-11-21T06:37:35;6.30;99.90
20858;DHT22;10589;53.636;10.012;2023-11-21T06:40:01;6.30;99.90
20858;DHT22;10589;53.636;10.012;2023-11-21T06:42:29;6.20;99.90
20858;DHT22;10589;53.636;10.012;2023-11-21T06:44:55;6.30;99.90
20858;DHT22;10589;53.636;10.012;2023-11-21T06:47:23;6.30;99.90
20858;DHT22;10589;53.636;10.012;2023-11-21T06:49:53;6.30;99.90
20858;DHT22;10589;53.636;10.012;2023-11-21T06:52:19;6.40;99.90
20858;DHT22;10589;53.636;10.012;2023-11-21T06:54:45;6.40;99.90
20858;DHT22;10589;53.636;10.012;2023-11-21T06:57:12;6.50;99.90
20858;DHT22;10589;53.636;10.012;2023-11-21T06:59:39;6.40;99.90
20858;DHT22;10589;53.636;10.012;2023-11-21T07:02:04;6.40;99.90
20858;DHT22;10589;53.636;10.012;2023-11-21T07:04:35;6.40;99.90
20858;DHT22;10589;53.636;10.012;2023-11-21T07:07:04;6.30;99.90
20858;DHT22;10589;53.636;10.012;2023-11-21T07:09:32;6.30;99.90
20858;DHT22;10589;53.636;10.012;2023-11-21T07:11:57;6.30;99.90
20858;DHT22;10589;53.636;10.012;2023-11-21T07:14:23;6.20;99.90
20858;DHT22;10589;53.636;10.012;2023-11-21T07:16:49;6.20;99.90
20858;DHT22;10589;53.636;10.012;2023-11-21T07:19:14;6.20;99.90
20858;DHT22;10589;53.636;10.012;2023-11-21T07:21:40;6.20;99.90
20858;DHT22;10589;53.636;10.012;2023-11-21T07:24:07;6.20;99.90
20858;DHT22;10589;53.636;10.012;2023-11-21T07:26:34;6.20;99.90
20858;DHT22;10589;53.636;10.012;2023-11-21T07:29:00;6.10;99.90
20858;DHT22;10589;53.636;10.012;2023-11-21T07:31:26;6.10;99.90
20858;DHT22;10589;53.636;10.012;2023-11-21T07:33:52;6.10;99.90
20858;DHT22;10589;53.636;10.012;2023-11-21T07:36:19;6.10;99.90
20858;DHT22;10589;53.636;10.012;2023-11-21T07:38:46;6.10;99.90
20858;DHT22;10589;53.636;10.012;2023-11-21T07:41:12;6.10;99.90
20858;DHT22;10589;53.636;10.012;2023-11-21T07:43:41;6.20;99.90
20858;DHT22;10589;53.636;10.012;2023-11-21T07:46:06;6.10;99.90
20858;DHT22;10589;53.636;10.012;2023-11-21T07:48:34;6.10;99.90
20858;DHT22;10589;53.636;10.012;2023-11-21T07:51:00;6.10;99.90
20858;DHT22;10589;53.636;10.012;2023-11-21T07:53:26;6.20;99.90
20858;DHT22;10589;53.636;10.012;2023-11-21T07:55:54;6.20;99.90
20858;DHT22;10589;53.636;10.012;2023-11-21T07:58:20;6.20;99.90
20858;DHT22;10589;53.636;10.012;2023-11-21T08:00:45;6.20;99.90
20858;DHT22;10589;53.636;10.012;2023-11-21T08:03:13;6.20;99.90
20858;DHT22;10589;53.636;10.012;2023-11-21T08:05:39;6.20;99.90
20858;DHT22;10589;53.636;10.012;2023-11-21T08:08:05;6.20;99.90
20858;DHT22;10589;53.636;10.012;2023-11-21T08:10:30;6.20;99.90
20858;DHT22;10589;53.636;10.012;2023-11-21T08:12:56;6.20;99.90
20858;DHT22;10589;53.636;10.012;2023-11-21T08:15:22;6.30;99.90
20858;DHT22;10589;53.636;10.012;2023-11-21T08:17:48;6.30;99.90
20858;DHT22;10589;53.636;10.012;2023-11-21T08:20:13;6.30;99.90
20858;DHT22;10589;53.636;10.012;2023-11-21T08:22:44;6.30;99.90
20858;DHT22;10589;53.636;10.012;2023-11-21T08:25:11;6.30;99.90
20858;DHT22;10589;53.636;10.012;2023-11-21T08:27:36;6.30;99.90
20858;DHT22;10589;53.636;10.012;2023-11-21T08:30:06;6.30;99.90
20858;DHT22;10589;53.636;10.012;2023-11-21T08:32:32;6.40;99.90
20858;DHT22;10589;53.636;10.012;2023-11-21T08:35:00;6.40;99.90
20858;DHT22;10589;53.636;10.012;2023-11-21T08:37:26;6.40;99.90
20858;DHT22;10589;53.636;10.012;2023-11-21T08:39:53;6.40;99.90
20858;DHT22;10589;53.636;10.012;2023-11-21T08:42:19;6.50;99.90
20858;DHT22;10589;53.636;10.012;2023-11-21T08:44:45;6.50;99.90
20858;DHT22;10589;53.636;10.012;2023-11-21T08:47:11;6.50;99.90
20858;DHT22;10589;53.636;10.012;2023-11-21T08:49:36;6.50;99.90
20858;DHT22;10589;53.636;10.012;2023-11-21T08:52:03;6.50;99.90
20858;DHT22;10589;53.636;10.012;2023-11-21T08:54:30;6.50;99.90
20858;DHT22;10589;53.636;10.012;2023-11-21T08:56:56;6.50;99.90
20858;DHT22;10589;53.636;10.012;2023-11-21T08:59:24;6.50;99.90
20858;DHT22;10589;53.636;10.012;2023-11-21T09:01:50;6.50;99.90
20858;DHT22;10589;53.636;10.012;2023-11-21T09:04:16;6.50;99.90
20858;DHT22;10589;53.636;10.012;2023-11-21T09:06:42;6.50;99.90
20858;DHT22;10589;53.636;10.012;2023-11-21T09:09:07;6.50;99.90
20858;DHT22;10589;53.636;10.012;2023-11-21T09:11:36;6.50;99.90
20858;DHT22;10589;53.636;10.012;2023-11-21T09:14:02;6.60;99.90
20858;DHT22;10589;53.636;10.012;2023-11-21T09:16:28;6.60;99.90
20858;DHT22;10589;53.636;10.012;2023-11-21T09:18:54;6.60;99.90
20858;DHT22;10589;53.636;10.012;2023-11-21T09:21:20;6.60;99.90
20858;DHT22;10589;53.636;10.012;2023-11-21T09:23:46;6.60;99.90
20858;DHT22;10589;53.636;10.012;2023-11-21T09:26:12;6.60;99.90
20858;DHT22;10589;53.636;10.012;2023-11-21T09:28:37;6.60;99.90
20858;DHT22;10589;53.636;10.012;2023-11-21T09:31:05;6.60;99.90
20858;DHT22;10589;53.636;10.012;2023-11-21T09:33:30;6.50;99.90
20858;DHT22;10589;53.636;10.012;2023-11-21T09:35:57;6.60;99.90
20858;DHT22;10589;53.636;10.012;2023-11-21T09:38:23;6.70;99.90
20858;DHT22;10589;53.636;10.012;2023-11-21T09:40:49;6.70;99.90
20858;DHT22;10589;53.636;10.012;2023-11-21T09:43:18;6.60;99.90
20858;DHT22;10589;53.636;10.012;2023-11-21T09:45:54;6.60;99.90
20858;DHT22;10589;53.636;10.012;2023-11-21T09:48:24;6.50;99.90
20858;DHT22;10589;53.636;10.012;2023-11-21T09:50:51;6.50;99.90
20858;DHT22;10589;53.636;10.012;2023-11-21T09:53:20;6.50;99.90
20858;DHT22;10589;53.636;10.012;2023-11-21T09:55:53;6.40;99.90
20858;DHT22;10589;53.636;10.012;2023-11-21T09:58:20;6.50;99.90
20858;DHT22;10589;53.636;10.012;2023-11-21T10:00:49;6.50;99.90
20858;DHT22;10589;53.636;10.012;2023-11-21T10:03:18;6.50;99.90
20858;DHT22;10589;53.636;10.012;2023-11-21T10:05:44;6.50;99.90
20858;DHT22;10589;53.636;10.012;2023-11-21T10:08:12;6.60;99.90
20858;DHT22;10589;53.636;10.012;2023-11-21T10:10:49;6.70;99.90
20858;DHT22;10589;53.636;10.012;2023-11-21T10:13:18;6.80;99.90
20858;DHT22;10589;53.636;10.012;2023-11-21T10:15:49;6.70;99.90
20858;DHT22;10589;53.636;10.012;2023-11-21T10:18:16;6.60;99.90
20858;DHT22;10589;53.636;10.012;2023-11-21T10:20:42;6.50;99.90
20858;DHT22;10589;53.636;10.012;2023-11-21T10:23:09;6.40;99.90
20858;DHT22;10589;53.636;10.012;2023-11-21T10:25:37;6.50;99.90
20858;DHT22;10589;53.636;10.012;2023-11-21T10:28:04;6.50;99.90
20858;DHT22;10589;53.636;10.012;2023-11-21T10:30:36;6.60;99.90
20858;DHT22;10589;53.636;10.012;2023-11-21T10:33:04;6.60;99.90
20858;DHT22;10589;53.636;10.012;2023-11-21T10:35:45;6.70;99.90
20858;DHT22;10589;53.636;10.012;2023-11-21T10:38:20;6.70;99.90
20858;DHT22;10589;53.636;10.012;2023-11-21T10:40:50;6.60;99.90
20858;DHT22;10589;53.636;10.012;2023-11-21T10:43:17;6.60;99.90
20858;DHT22;10589;53.636;10.012;2023-11-21T10:45:43;6.60;99.90
20858;DHT22;10589;53.636;10.012;2023-11-21T10:48:12;6.60;99.90
20858;DHT22;10589;53.636;10.012;2023-11-21T10:50:41;6.60;99.90
20858;DHT22;10589;53.636;10.012;2023-11-21T10:53:07;6.60;99.90
20858;DHT22;10589;53.636;10.012;2023-11-21T10:55:34;6.50;99.90
20858;DHT22;10589;53.636;10.012;2023-11-21T10:58:01;6.50;99.90
20858;DHT22;10589;53.636;10.012;2023-11-21T11:00:28;6.50;99.90
20858;DHT22;10589;53.636;10.012;2023-11-21T11:02:55;6.50;99.90
20858;DHT22;10589;53.636;10.012;2023-11-21T11:05:22;6.50;99.90
20858;DHT22;10589;53.636;10.012;2023-11-21T11:07:51;6.50;99.90
20858;DHT22;10589;53.636;10.012;2023-11-21T11:10:28;6.40;99.90
20858;DHT22;10589;53.636;10.012;2023-11-21T11:12:55;6.30;99.90
20858;DHT22;10589;53.636;10.012;2023-11-21T11:15:23;6.40;99.90
20858;DHT22;10589;53.636;10.012;2023-11-21T11:17:49;6.40;99.90
20858;DHT22;10589;53.636;10.012;2023-11-21T11:20:16;6.40;99.90
20858;DHT22;10589;53.636;10.012;2023-11-21T11:22:50;6.30;99.90
20858;DHT22;10589;53.636;10.012;2023-11-21T11:28:14;6.30;99.90
20858;DHT22;10589;53.636;10.012;2023-11-21T11:31:00;6.30;99.90
20858;DHT22;10589;53.636;10.012;2023-11-21T11:33:59;6.40;99.90
20858;DHT22;10589;53.636;10.012;2023-11-21T11:36:29;6.40;99.90
20858;DHT22;10589;53.636;10.012;2023-11-21T11:38:55;6.50;99.90
20858;DHT22;10589;53.636;10.012;2023-11-21T11:41:31;6.50;99.90
20858;DHT22;10589;53.636;10.012;2023-11-21T11:44:01;6.50;99.90
20858;DHT22;10589;53.636;10.012;2023-11-21T11:46:43;6.50;99.90
20858;DHT22;10589;53.636;10.012;2023-11-21T11:49:24;6.50;99.90
20858;DHT22;10589;53.636;10.012;2023-11-21T11:54:55;6.50;99.90
20858;DHT22;10589;53.636;10.012;2023-11-21T11:57:24;6.60;99.90
20858;DHT22;10589;53.636;10.012;2023-11-21T12:02:40;6.60;99.90
20858;DHT22;10589;53.636;10.012;2023-11-21T12:05:13;6.60;99.90
20858;DHT22;10589;53.636;10.012;2023-11-21T12:08:00;6.60;99.90
20858;DHT22;10589;53.636;10.012;2023-11-21T12:10:28;6.50;99.90
20858;DHT22;10589;53.636;10.012;2023-11-21T12:13:11;6.50;99.90
20858;DHT22;10589;53.636;10.012;2023-11-21T12:15:39;6.40;99.90
20858;DHT22;10589;53.636;10.012;2023-11-21T12:18:07;6.30;99.90
20858;DHT22;10589;53.636;10.012;2023-11-21T12:20:33;6.30;99.90
20858;DHT22;10589;53.636;10.012;2023-11-21T12:23:05;6.20;99.90
20858;DHT22;10589;53.636;10.012;2023-11-21T12:25:31;6.20;99.90
20858;DHT22;10589;53.636;10.012;2023-11-21T12:27:58;6.20;99.90
20858;DHT22;10589;53.636;10.012;2023-11-21T12:30:27;6.10;99.90
20858;DHT22;10589;53.636;10.012;2023-11-21T12:32:57;6.20;99.90
20858;DHT22;10589;53.636;10.012;2023-11-21T12:35:31;6.10;99.90
20858;DHT22;10589;53.636;10.012;2023-11-21T12:37:59;6.10;99.90
20858;DHT22;10589;53.636;10.012;2023-11-21T12:40:26;6.10;99.90
20858;DHT22;10589;53.636;10.012;2023-11-21T12:42:55;6.10;99.90
20858;DHT22;10589;53.636;10.012;2023-11-21T12:45:25;6.10;99.90
20858;DHT22;10589;53.636;10.012;2023-11-21T12:47:54;6.10;99.90
20858;DHT22;10589;53.636;10.012;2023-11-21T12:50:21;6.10;99.90
20858;DHT22;10589;53.636;10.012;2023-11-21T12:52:50;6.10;99.90
20858;DHT22;10589;53.636;10.012;2023-11-21T12:55:25;6.10;99.90
20858;DHT22;10589;53.636;10.012;2023-11-21T12:57:53;6.10;99.90
20858;DHT22;10589;53.636;10.012;2023-11-21T13:00:32;6.10;99.90
20858;DHT22;10589;53.636;10.012;2023-11-21T13:02:59;6.10;99.90
20858;DHT22;10589;53.636;10.012;2023-11-21T13:05:28;6.10;99.90
20858;DHT22;10589;53.636;10.012;2023-11-21T13:07:57;6.10;99.90
20858;DHT22;10589;53.636;10.012;2023-11-21T13:10:27;6.10;99.90
20858;DHT22;10589;53.636;10.012;2023-11-21T13:13:00;6.10;99.90
20858;DHT22;10589;53.636;10.012;2023-11-21T13:15:29;6.10;99.90
20858;DHT22;10589;53.636;10.012;2023-11-21T13:17:57;6.00;99.90
20858;DHT22;10589;53.636;10.012;2023-11-21T13:20:24;6.00;99.90
20858;DHT22;10589;53.636;10.012;2023-11-21T13:22:55;6.00;99.90
20858;DHT22;10589;53.636;10.012;2023-11-21T13:25:25;5.90;99.90
20858;DHT22;10589;53.636;10.012;2023-11-21T13:27:54;6.00;99.90
20858;DHT22;10589;53.636;10.012;2023-11-21T13:30:20;6.00;99.90
20858;DHT22;10589;53.636;10.012;2023-11-21T13:32:52;5.90;99.90
20858;DHT22;10589;53.636;10.012;2023-11-21T13:35:18;5.90;99.90
20858;DHT22;10589;53.636;10.012;2023-11-21T13:37:56;5.90;99.90
20858;DHT22;10589;53.636;10.012;2023-11-21T13:40:26;5.90;99.90
20858;DHT22;10589;53.636;10.012;2023-11-21T13:42:53;5.90;99.90
20858;DHT22;10589;53.636;10.012;2023-11-21T13:45:22;5.90;99.90
20858;DHT22;10589;53.636;10.012;2023-11-21T13:47:52;5.90;99.90
20858;DHT22;10589;53.636;10.012;2023-11-21T13:50:20;5.90;99.90
20858;DHT22;10589;53.636;10.012;2023-11-21T13:52:50;5.90;99.90
20858;DHT22;10589;53.636;10.012;2023-11-21T13:55:19;5.90;99.90
20858;DHT22;10589;53.636;10.012;2023-11-21T13:57:46;5.90;99.90
20858;DHT22;10589;53.636;10.012;2023-11-21T14:00:15;5.90;99.90
20858;DHT22;10589;53.636;10.012;2023-11-21T14:03:00;5.90;99.90
20858;DHT22;10589;53.636;10.012;2023-11-21T14:05:27;5.90;99.90
20858;DHT22;10589;53.636;10.012;2023-11-21T14:07:57;5.90;99.90
20858;DHT22;10589;53.636;10.012;2023-11-21T14:10:29;5.90;99.90
20858;DHT22;10589;53.636;10.012;2023-11-21T14:13:03;5.90;99.90
20858;DHT22;10589;53.636;10.012;2023-11-21T14:15:30;5.90;99.90
20858;DHT22;10589;53.636;10.012;2023-11-21T14:17:56;5.90;99.90
20858;DHT22;10589;53.636;10.012;2023-11-21T14:20:22;5.90;99.90
20858;DHT22;10589;53.636;10.012;2023-11-21T14:22:48;5.80;99.90
20858;DHT22;10589;53.636;10.012;2023-11-21T14:25:13;5.80;99.90
20858;DHT22;10589;53.636;10.012;2023-11-21T14:27:39;5.70;99.90
20858;DHT22;10589;53.636;10.012;2023-11-21T14:30:06;5.70;99.90
20858;DHT22;10589;53.636;10.012;2023-11-21T14:32:32;5.70;99.90
20858;DHT22;10589;53.636;10.012;2023-11-21T14:34:57;5.70;99.90
20858;DHT22;10589;53.636;10.012;2023-11-21T14:37:23;5.60;99.90
20858;DHT22;10589;53.636;10.012;2023-11-21T14:39:49;5.60;99.90
20858;DHT22;10589;53.636;10.012;2023-11-21T14:42:15;5.60;99.90
20858;DHT22;10589;53.636;10.012;2023-11-21T14:44:41;5.50;99.90
20858;DHT22;10589;53.636;10.012;2023-11-21T14:47:08;5.50;99.90
20858;DHT22;10589;53.636;10.012;2023-11-21T14:49:43;5.50;99.90
20858;DHT22;10589;53.636;10.012;2023-11-21T14:52:22;5.50;99.90
20858;DHT22;10589;53.636;10.012;2023-11-21T14:54:53;5.50;99.90
20858;DHT22;10589;53.636;10.012;2023-11-21T14:57:39;5.50;99.90
20858;DHT22;10589;53.636;10.012;2023-11-21T15:00:05;5.40;99.90
20858;DHT22;10589;53.636;10.012;2023-11-21T15:02:35;5.40;99.90
20858;DHT22;10589;53.636;10.012;2023-11-21T15:05:15;5.40;99.90
20858;DHT22;10589;53.636;10.012;2023-11-21T15:07:41;5.30;99.90
20858;DHT22;10589;53.636;10.012;2023-11-21T15:10:07;5.30;99.90
20858;DHT22;10589;53.636;10.012;2023-11-21T15:12:40;5.30;99.90
20858;DHT22;10589;53.636;10.012;2023-11-21T15:15:06;5.20;99.90
20858;DHT22;10589;53.636;10.012;2023-11-21T15:17:35;5.20;99.90
20858;DHT22;10589;53.636;10.012;2023-11-21T15:20:02;5.20;99.90
20858;DHT22;10589;53.636;10.012;2023-11-21T15:22:29;5.20;99.90
20858;DHT22;10589;53.636;10.012;2023-11-21T15:24:55;5.20;99.90
20858;DHT22;10589;53.636;10.012;2023-11-21T15:27:21;5.20;99.90
20858;DHT22;10589;53.636;10.012;2023-11-21T15:29:47;5.20;99.90
20858;DHT22;10589;53.636;10.012;2023-11-21T15:32:13;5.20;99.90
20858;DHT22;10589;53.636;10.012;2023-11-21T15:34:38;5.20;99.90
20858;DHT22;10589;53.636;10.012;2023-11-21T15:37:05;5.20;99.90
20858;DHT22;10589;53.636;10.012;2023-11-21T15:39:35;5.10;99.90
20858;DHT22;10589;53.636;10.012;2023-11-21T15:42:00;5.10;99.90
20858;DHT22;10589;53.636;10.012;2023-11-21T15:44:26;5.10;99.90
20858;DHT22;10589;53.636;10.012;2023-11-21T15:46:53;5.10;99.90
20858;DHT22;10589;53.636;10.012;2023-11-21T15:49:19;5.00;99.90
20858;DHT22;10589;53.636;10.012;2023-11-21T15:51:48;5.00;99.90
20858;DHT22;10589;53.636;10.012;2023-11-21T15:54:23;4.90;99.90
20858;DHT22;10589;53.636;10.012;2023-11-21T15:56:50;4.90;99.90
20858;DHT22;10589;53.636;10.012;2023-11-21T15:59:17;4.90;99.90
20858;DHT22;10589;53.636;10.012;2023-11-21T16:01:43;4.80;99.90
20858;DHT22;10589;53.636;10.012;2023-11-21T16:04:13;4.80;99.90
20858;DHT22;10589;53.636;10.012;2023-11-21T16:06:42;4.60;99.90
20858;DHT22;10589;53.636;10.012;2023-11-21T16:09:08;4.60;99.90
20858;DHT22;10589;53.636;10.012;2023-11-21T16:12:01;4.60;99.90
20858;DHT22;10589;53.636;10.012;2023-11-21T16:14:33;4.70;99.90
20858;DHT22;10589;53.636;10.012;2023-11-21T16:17:10;4.60;99.90
20858;DHT22;10589;53.636;10.012;2023-11-21T16:19:38;4.70;99.90
20858;DHT22;10589;53.636;10.012;2023-11-21T16:22:04;4.70;99.90
20858;DHT22;10589;53.636;10.012;2023-11-21T16:24:29;4.70;99.90
20858;DHT22;10589;53.636;10.012;2023-11-21T16:26:59;4.70;99.90
20858;DHT22;10589;53.636;10.012;2023-11-21T16:29:24;4.70;99.90
20858;DHT22;10589;53.636;10.012;2023-11-21T16:31:51;4.80;99.90
20858;DHT22;10589;53.636;10.012;2023-11-21T16:34:19;4.80;99.90
20858;DHT22;10589;53.636;10.012;2023-11-21T16:36:45;4.80;99.90
20858;DHT22;10589;53.636;10.012;2023-11-21T16:39:15;4.70;99.90
20858;DHT22;10589;53.636;10.012;2023-11-21T16:41:42;4.70;99.90
20858;DHT22;10589;53.636;10.012;2023-11-21T16:44:15;4.70;99.90
20858;DHT22;10589;53.636;10.012;2023-11-21T16:46:46;4.60;99.90
20858;DHT22;10589;53.636;10.012;2023-11-21T16:49:12;4.60;99.90
20858;DHT22;10589;53.636;10.012;2023-11-21T16:51:38;4.60;99.90
20858;DHT22;10589;53.636;10.012;2023-11-21T16:54:04;4.50;99.90
20858;DHT22;10589;53.636;10.012;2023-11-21T16:56:29;4.50;99.90
20858;DHT22;10589;53.636;10.012;2023-11-21T16:58:55;4.50;99.90
20858;DHT22;10589;53.636;10.012;2023-11-21T17:01:21;4.50;99.90
20858;DHT22;10589;53.636;10.012;2023-11-21T17:03:47;4.50;99.90
20858;DHT22;10589;53.636;10.012;2023-11-21T17:06:14;4.50;99.90
20858;DHT22;10589;53.636;10.012;2023-11-21T17:08:40;4.30;99.90
20858;DHT22;10589;53.636;10.012;2023-11-21T17:11:05;4.30;99.90
20858;DHT22;10589;53.636;10.012;2023-11-21T17:13:37;4.20;99.90
20858;DHT22;10589;53.636;10.012;2023-11-21T17:16:02;4.20;99.90
20858;DHT22;10589;53.636;10.012;2023-11-21T17:18:28;4.20;99.90
20858;DHT22;10589;53.636;10.012;2023-11-21T17:20:53;4.20;99.90
20858;DHT22;10589;53.636;10.012;2023-11-21T17:23:20;4.10;99.90
20858;DHT22;10589;53.636;10.012;2023-11-21T17:25:45;4.10;99.90
20858;DHT22;10589;53.636;10.012;2023-11-21T17:28:11;4.00;99.90
20858;DHT22;10589;53.636;10.012;2023-11-21T17:30:37;4.00;99.90
20858;DHT22;10589;53.636;10.012;2023-11-21T17:33:03;4.10;99.90
20858;DHT22;10589;53.636;10.012;2023-11-21T17:35:29;4.00;99.90
20858;DHT22;10589;53.636;10.012;2023-11-21T17:37:54;3.90;99.90
20858;DHT22;10589;53.636;10.012;2023-11-21T17:40:20;3.80;99.90
20858;DHT22;10589;53.636;10.012;2023-11-21T17:42:46;3.70;99.90
20858;DHT22;10589;53.636;10.012;2023-11-21T17:45:12;3.60;99.90
20858;DHT22;10589;53.636;10.012;2023-11-21T17:47:38;3.50;99.90
20858;DHT22;10589;53.636;10.012;2023-11-21T17:50:03;3.60;99.90
20858;DHT22;10589;53.636;10.012;2023-11-21T17:52:29;3.60;99.90
20858;DHT22;10589;53.636;10.012;2023-11-21T17:54:55;3.60;99.90
20858;DHT22;10589;53.636;10.012;2023-11-21T17:57:20;3.60;99.90
20858;DHT22;10589;53.636;10.012;2023-11-21T17:59:46;3.70;99.90
20858;DHT22;10589;53.636;10.012;2023-11-21T18:02:16;3.70;99.90
20858;DHT22;10589;53.636;10.012;2023-11-21T18:04:42;3.70;99.90
20858;DHT22;10589;53.636;10.012;2023-11-21T18:07:07;3.80;99.90
20858;DHT22;10589;53.636;10.012;2023-11-21T18:09:33;3.80;99.90
20858;DHT22;10589;53.636;10.012;2023-11-21T18:12:00;3.80;99.90
20858;DHT22;10589;53.636;10.012;2023-11-21T18:14:28;3.80;99.90
20858;DHT22;10589;53.636;10.012;2023-11-21T18:16:55;3.80;99.90
20858;DHT22;10589;53.636;10.012;2023-11-21T18:19:21;3.90;99.90
20858;DHT22;10589;53.636;10.012;2023-11-21T18:21:47;4.00;99.90
20858;DHT22;10589;53.636;10.012;2023-11-21T18:24:12;4.00;99.90
20858;DHT22;10589;53.636;10.012;2023-11-21T18:26:38;4.10;99.90
20858;DHT22;10589;53.636;10.012;2023-11-21T18:29:04;4.10;99.90
20858;DHT22;10589;53.636;10.012;2023-11-21T18:31:29;4.10;99.90
20858;DHT22;10589;53.636;10.012;2023-11-21T18:33:55;4.10;99.90
20858;DHT22;10589;53.636;10.012;2023-11-21T18:36:21;4.10;99.90
20858;DHT22;10589;53.636;10.012;2023-11-21T18:38:46;4.10;99.90
20858;DHT22;10589;53.636;10.012;2023-11-21T18:41:20;4.10;99.90
20858;DHT22;10589;53.636;10.012;2023-11-21T18:43:46;4.00;99.90
20858;DHT22;10589;53.636;10.012;2023-11-21T18:46:12;4.00;99.90
20858;DHT22;10589;53.636;10.012;2023-11-21T18:48:37;4.00;99.90
20858;DHT22;10589;53.636;10.012;2023-11-21T18:51:03;3.90;99.90
20858;DHT22;10589;53.636;10.012;2023-11-21T18:53:29;3.90;99.90
20858;DHT22;10589;53.636;10.012;2023-11-21T18:55:57;3.90;99.90
20858;DHT22;10589;53.636;10.012;2023-11-21T18:58:23;3.90;99.90
20858;DHT22;10589;53.636;10.012;2023-11-21T19:00:48;3.90;99.90
20858;DHT22;10589;53.636;10.012;2023-11-21T19:03:15;3.90;99.90
20858;DHT22;10589;53.636;10.012;2023-11-21T19:05:41;3.90;99.90
20858;DHT22;10589;53.636;10.012;2023-11-21T19:08:06;3.90;99.90
20858;DHT22;10589;53.636;10.012;2023-11-21T19:10:32;3.90;99.90
20858;DHT22;10589;53.636;10.012;2023-11-21T19:12:58;3.80;99.90
20858;DHT22;10589;53.636;10.012;2023-11-21T19:15:24;3.80;99.90
20858;DHT22;10589;53.636;10.012;2023-11-21T19:17:51;3.70;99.90
20858;DHT22;10589;53.636;10.012;2023-11-21T19:20:19;3.60;99.90
20858;DHT22;10589;53.636;10.012;2023-11-21T19:22:44;3.60;99.90
20858;DHT22;10589;53.636;10.012;2023-11-21T19:25:10;3.60;99.90
20858;DHT22;10589;53.636;10.012;2023-11-21T19:27:38;3.60;99.90
20858;DHT22;10589;53.636;10.012;2023-11-21T19:30:04;3.60;99.90
20858;DHT22;10589;53.636;10.012;2023-11-21T19:32:30;3.60;99.90
20858;DHT22;10589;53.636;10.012;2023-11-21T19:34:55;3.60;99.90
20858;DHT22;10589;53.636;10.012;2023-11-21T19:37:21;3.60;99.90
20858;DHT22;10589;53.636;10.012;2023-11-21T19:39:47;3.60;99.90
20858;DHT22;10589;53.636;10.012;2023-11-21T19:42:14;3.60;99.90
20858;DHT22;10589;53.636;10.012;2023-11-21T19:44:41;3.60;99.90
20858;DHT22;10589;53.636;10.012;2023-11-21T19:47:07;3.70;99.90
20858;DHT22;10589;53.636;10.012;2023-11-21T19:49:33;3.70;99.90
20858;DHT22;10589;53.636;10.012;2023-11-21T19:51:59;3.80;99.90
20858;DHT22;10589;53.636;10.012;2023-11-21T19:54:25;3.80;99.90
20858;DHT22;10589;53.636;10.012;2023-11-21T19:56:50;3.80;99.90
20858;DHT22;10589;53.636;10.012;2023-11-21T19:59:16;3.80;99.90
20858;DHT22;10589;53.636;10.012;2023-11-21T20:01:42;3.80;99.90
20858;DHT22;10589;53.636;10.012;2023-11-21T20:04:08;3.80;99.90
20858;DHT22;10589;53.636;10.012;2023-11-21T20:06:42;3.80;99.90
20858;DHT22;10589;53.636;10.012;2023-11-21T20:09:08;3.90;99.90
20858;DHT22;10589;53.636;10.012;2023-11-21T20:11:35;3.90;99.90
20858;DHT22;10589;53.636;10.012;2023-11-21T20:14:02;3.90;99.90
20858;DHT22;10589;53.636;10.012;2023-11-21T20:16:29;3.90;99.90
20858;DHT22;10589;53.636;10.012;2023-11-21T20:18:55;3.90;99.90
20858;DHT22;10589;53.636;10.012;2023-11-21T20:21:24;3.90;99.90
20858;DHT22;10589;53.636;10.012;2023-11-21T20:23:49;3.90;99.90
20858;DHT22;10589;53.636;10.012;2023-11-21T20:26:41;3.90;99.90
20858;DHT22;10589;53.636;10.012;2023-11-21T20:29:09;3.90;99.90